createdAt,value
2022-08-26T00:11:27.182Z,20.47
2022-08-26T00:40:05.887Z,20.33
2022-08-26T01:08:28.357Z,19.69
2022-08-26T01:37:16.248Z,19.53
2022-08-26T02:05:35.263Z,19.31
2022-08-26T02:34:16.308Z,19.07
2022-08-26T03:03:00.876Z,18.86
2022-08-26T03:31:40.954Z,18.58
2022-08-26T04:00:14.068Z,18.4
2022-08-26T04:28:40.655Z,18.01
2022-08-26T04:57:13.497Z,18.13
2022-08-26T05:26:00.777Z,18.54
2022-08-26T05:54:22.550Z,19.17
2022-08-26T06:22:41.730Z,20.41
2022-08-26T06:51:39.585Z,35.44
2022-08-26T07:20:33.727Z,37.49
2022-08-26T09:16:47.059Z,27.29
2022-08-26T10:14:06.797Z,28.4
2022-08-26T10:42:41.255Z,29.05
2022-08-26T11:11:02.667Z,29.36
2022-08-26T11:39:54.943Z,29.72
2022-08-26T12:08:13.109Z,30.15
2022-08-26T12:36:33.934Z,30.81
2022-08-26T13:05:07.296Z,31.13
2022-08-26T13:33:41.825Z,30.15
2022-08-26T14:02:04.560Z,29.01
2022-08-26T14:30:32.757Z,26.74
2022-08-26T14:59:05.310Z,22.68
2022-08-26T15:27:31.066Z,23.1
2022-08-26T15:56:05.267Z,23.47
2022-08-26T16:24:46.711Z,24.18
2022-08-26T16:53:25.935Z,25.6
2022-08-26T17:21:42.460Z,25.71
2022-08-26T17:49:57.767Z,21.69
2022-08-26T18:18:23.656Z,21.9
2022-08-26T18:46:42.275Z,21.07
2022-08-26T19:15:12.322Z,21.18
2022-08-26T19:43:52.594Z,20.93
2022-08-26T20:12:11.626Z,21.55
2022-08-26T20:40:56.702Z,21.32
2022-08-26T21:09:30.949Z,20.44
2022-08-26T21:37:53.979Z,20.65
2022-08-26T22:06:22.382Z,20.34
2022-08-26T22:35:28.145Z,20.46
2022-08-26T23:03:32.385Z,20.36
2022-08-26T23:32:04.812Z,20.14
